Time;durP1;ratioP1;P1;durP2;ratioP2;P2;SDS_P1;SDS_P2;PMS_P1;PMS_P2;Temp;Humidity;BMP_temperature;BMP_pressure;BME280_temperature;BME280_humidity;BME280_pressure;Samples;Min_cycle;Max_cycle;Signal;HPM_P1;HPM_P2
2023/03/31 00:09:32;;;;;;;3.45;0.90;;;;;;;8.97;58.22;99418.09;19939637;29;20196;-79
2023/03/31 00:19:35;;;;;;;3.55;0.73;;;;;;;9.44;56.76;99409.88;19972783;29;20296;-80
2023/03/31 00:29:40;;;;;;;5.83;1.00;;;;;;;9.22;57.02;99390.72;19955604;29;20225;-80
2023/03/31 00:39:42;;;;;;;2.90;0.73;;;;;;;9.76;55.35;99367.75;19970164;29;20253;-80
2023/03/31 00:49:47;;;;;;;3.57;0.90;;;;;;;9.73;55.75;99340.28;19957456;29;20230;-79
2023/03/31 00:59:51;;;;;;;4.63;0.93;;;;;;;9.55;55.43;99337.78;19953662;29;20626;-80
2023/03/31 01:09:58;;;;;;;3.73;1.10;;;;;;;9.56;55.36;99316.06;19953851;29;20188;-79
2023/03/31 01:20:33;;;;;;;2.88;0.65;;;;;;;9.49;56.71;99308.22;19961882;29;20268;-78
2023/03/31 01:31:14;;;;;;;2.70;0.70;;;;;;;9.08;59.50;99277.66;19944097;29;20200;-79
2023/03/31 01:41:35;;;;;;;2.90;0.82;;;;;;;8.99;62.48;99269.38;19954672;29;20195;-78
2023/03/31 01:51:50;;;;;;;5.83;1.77;;;;;;;8.90;63.27;99231.28;19950434;29;20284;-79
2023/03/31 02:01:57;;;;;;;5.13;1.43;;;;;;;9.39;62.34;99220.59;19979246;29;20200;-78
2023/03/31 02:12:02;;;;;;;6.43;0.83;;;;;;;10.25;60.17;99213.94;19964224;29;20609;-80
2023/03/31 02:22:06;;;;;;;6.43;0.80;;;;;;;9.81;61.18;99204.00;19933934;29;20579;-81
2023/03/31 02:32:23;;;;;;;10.07;1.20;;;;;;;9.73;61.45;99174.81;19947578;29;20287;-78
2023/03/31 02:42:27;;;;;;;3.37;0.90;;;;;;;9.77;59.98;99146.72;19960777;29;20211;-78
2023/03/31 02:52:39;;;;;;;3.80;1.00;;;;;;;9.61;61.38;99123.38;19961490;29;20228;-78
2023/03/31 03:02:56;;;;;;;6.83;1.30;;;;;;;8.80;64.24;99092.72;19957607;29;20200;-79
2023/03/31 03:13:17;;;;;;;4.73;1.23;;;;;;;9.18;63.02;99054.69;19931973;29;20293;-80
2023/03/31 03:23:19;;;;;;;5.00;1.50;;;;;;;8.94;63.46;99033.19;19955631;29;20304;-80
2023/03/31 03:33:23;;;;;;;12.18;2.05;;;;;;;9.53;62.10;99018.94;19973089;29;20227;-79
2023/03/31 03:43:25;;;;;;;6.50;1.40;;;;;;;9.14;63.29;98983.41;19972855;29;20591;-79
2023/03/31 03:53:28;;;;;;;9.30;1.43;;;;;;;9.32;62.31;98959.28;19972100;29;20220;-79
2023/03/31 04:03:30;;;;;;;3.60;1.13;;;;;;;8.77;63.36;98955.59;19967156;29;20235;-79
2023/03/31 04:13:32;;;;;;;6.37;0.50;;;;;;;8.87;62.73;98917.63;19955528;29;20653;-79
2023/03/31 04:23:41;;;;;;;3.27;0.67;;;;;;;9.06;62.41;98894.31;19970268;29;20232;-79
2023/03/31 04:33:44;;;;;;;6.83;1.00;;;;;;;8.66;63.64;98894.56;19981964;29;20258;-80
2023/03/31 04:43:47;;;;;;;5.97;0.80;;;;;;;8.61;63.40;98864.72;19981817;29;20208;-79
2023/03/31 04:53:49;;;;;;;5.63;0.90;;;;;;;8.92;62.39;98869.47;19949970;29;20216;-80
2023/03/31 05:03:51;;;;;;;3.87;0.70;;;;;;;8.31;64.31;98855.13;19965348;29;20233;-79
2023/03/31 05:13:53;;;;;;;7.57;0.93;;;;;;;8.09;65.83;98834.91;19971318;29;20280;-80
2023/03/31 05:23:56;;;;;;;4.30;0.70;;;;;;;8.65;64.04;98798.16;19943165;29;20231;-79
2023/03/31 05:33:58;;;;;;;5.50;1.07;;;;;;;8.66;63.64;98776.44;19950249;29;20276;-79
2023/03/31 05:44:03;;;;;;;5.15;0.90;;;;;;;8.40;65.01;98734.81;19973036;29;20208;-79
2023/03/31 05:54:06;;;;;;;3.23;0.60;;;;;;;8.13;64.80;98705.72;19979155;29;20276;-79
2023/03/31 06:04:08;;;;;;;7.37;1.07;;;;;;;8.19;64.17;98694.97;19985895;29;20210;-79
2023/03/31 06:14:10;;;;;;;3.23;0.73;;;;;;;8.34;63.14;98674.44;19984527;29;20215;-80
2023/03/31 06:24:12;;;;;;;1.93;0.70;;;;;;;8.31;62.90;98661.13;19960396;29;20235;-80
2023/03/31 06:34:15;;;;;;;2.88;0.63;;;;;;;8.33;62.67;98655.94;19972176;29;20220;-80
2023/03/31 06:44:21;;;;;;;1.80;0.30;;;;;;;8.22;63.73;98652.91;19963775;29;20204;-79
2023/03/31 06:54:24;;;;;;;1.47;0.30;;;;;;;8.18;64.63;98642.75;19956553;29;20598;-79
2023/03/31 07:04:26;;;;;;;3.58;0.90;;;;;;;7.92;65.97;98632.13;19957121;29;20192;-78
2023/03/31 07:14:28;;;;;;;2.90;0.50;;;;;;;8.51;63.46;98637.47;19967869;29;20219;-79
2023/03/31 07:24:30;;;;;;;2.07;0.40;;;;;;;7.85;65.91;98624.34;19973740;29;20653;-79
2023/03/31 07:34:32;;;;;;;2.20;0.40;;;;;;;7.87;65.98;98638.84;19974404;29;20253;-79
2023/03/31 07:44:38;;;;;;;1.27;0.30;;;;;;;7.46;68.48;98633.78;19982056;29;20204;-79
2023/03/31 07:54:40;;;;;;;5.17;0.70;;;;;;;8.04;65.75;98621.56;19971798;29;20219;-80
2023/03/31 08:04:44;;;;;;;1.85;0.47;;;;;;;8.69;63.21;98606.91;19967802;29;20192;-80
2023/03/31 08:14:46;;;;;;;2.63;0.60;;;;;;;9.13;62.50;98584.84;19964188;29;20297;-81
2023/03/31 08:24:48;;;;;;;2.00;0.33;;;;;;;8.96;61.21;98577.69;19966284;29;20265;-82
2023/03/31 08:34:50;;;;;;;4.23;0.53;;;;;;;9.40;59.94;98568.78;19940249;29;20265;-81
2023/03/31 08:45:08;;;;;;;0.97;0.20;;;;;;;9.33;60.51;98561.03;19969927;29;20200;-81
2023/03/31 08:55:15;;;;;;;2.87;0.47;;;;;;;9.26;61.41;98562.94;19950091;29;20223;-81
2023/03/31 09:05:44;;;;;;;2.00;0.43;;;;;;;9.23;61.11;98574.94;19970429;29;20252;-81
2023/03/31 09:16:14;;;;;;;3.15;0.63;;;;;;;8.62;63.41;98585.06;20019736;29;20215;-81
2023/03/31 09:26:48;;;;;;;4.40;0.97;;;;;;;9.29;62.16;98550.91;19922674;29;20284;-81
2023/03/31 09:36:51;;;;;;;1.93;1.00;;;;;;;9.07;64.74;98544.09;19913924;29;20259;-82
2023/03/31 09:46:54;;;;;;;2.90;0.55;;;;;;;8.87;64.95;98522.84;19882924;29;20451;-82
2023/03/31 09:56:56;;;;;;;2.60;0.80;;;;;;;9.19;63.95;98507.28;19919878;29;20258;-82
2023/03/31 10:06:59;;;;;;;4.57;0.60;;;;;;;9.26;62.45;98507.44;19921503;29;20209;-83
2023/03/31 10:17:05;;;;;;;4.03;0.70;;;;;;;9.41;62.95;98486.75;19879827;29;20258;-81
2023/03/31 10:27:20;;;;;;;3.97;1.13;;;;;;;9.97;61.21;98454.91;19910521;29;20232;-82
2023/03/31 10:37:25;;;;;;;5.32;1.10;;;;;;;9.89;60.45;98445.56;19881017;29;20504;-82
2023/03/31 10:47:32;;;;;;;7.97;2.20;;;;;;;9.89;61.01;98470.13;19898881;29;20266;-82
2023/03/31 10:57:44;;;;;;;8.90;1.60;;;;;;;9.69;63.49;98463.03;19893211;29;20285;-81
2023/03/31 11:08:11;;;;;;;13.65;2.58;;;;;;;10.90;60.20;98431.31;19913833;29;20544;-83
2023/03/31 11:18:51;;;;;;;10.85;2.45;;;;;;;11.27;56.77;98397.28;19945242;29;20228;-83
2023/03/31 11:29:00;;;;;;;10.65;1.75;;;;;;;11.25;56.08;98385.59;19997912;29;20514;-83
2023/03/31 11:39:29;;;;;;;3.70;0.80;;;;;;;9.52;59.43;98490.53;20005034;29;20289;-80
2023/03/31 11:49:37;;;;;;;3.00;0.40;;;;;;;8.25;63.13;98463.00;19993844;29;20553;-80
2023/03/31 11:59:41;;;;;;;5.77;0.80;;;;;;;9.09;62.00;98462.91;19962133;29;20281;-79
2023/03/31 12:10:04;;;;;;;4.38;0.90;;;;;;;9.19;61.30;98457.44;19961387;29;20212;-80
2023/03/31 12:20:33;;;;;;;2.87;0.70;;;;;;;10.21;60.12;98434.66;19948809;29;20246;-81
2023/03/31 12:30:40;;;;;;;2.67;0.90;;;;;;;11.04;59.92;98419.31;19954267;29;20211;-82
2023/03/31 12:41:04;;;;;;;5.47;0.80;;;;;;;10.65;56.67;98404.91;19951347;29;20261;-81
2023/03/31 12:51:12;;;;;;;6.95;1.00;;;;;;;11.17;55.54;98392.38;19960465;29;20204;-81
2023/03/31 13:01:22;;;;;;;6.18;1.10;;;;;;;10.50;56.82;98409.59;19969263;29;20216;-82
2023/03/31 13:11:37;;;;;;;7.00;0.90;;;;;;;10.15;59.80;98412.84;19991903;29;20259;-81
2023/03/31 13:21:53;;;;;;;7.45;1.23;;;;;;;11.01;59.67;98392.69;19987134;29;20301;-81
2023/03/31 13:32:01;;;;;;;7.57;1.52;;;;;;;11.42;58.97;98362.31;19969081;29;20216;-83
2023/03/31 13:42:25;;;;;;;6.70;2.00;;;;;;;11.51;56.92;98367.59;19987616;29;20694;-83
2023/03/31 13:52:42;;;;;;;4.82;1.67;;;;;;;10.99;57.93;98370.47;19968090;29;20637;-83
2023/03/31 14:03:19;;;;;;;10.17;1.70;;;;;;;11.65;56.77;98348.66;19980391;29;20195;-82
2023/03/31 14:13:24;;;;;;;7.22;1.35;;;;;;;10.81;58.09;98349.81;19956775;29;20276;-82
2023/03/31 14:23:32;;;;;;;6.97;2.08;;;;;;;10.95;58.86;98338.63;19977760;29;20231;-82
2023/03/31 14:33:45;;;;;;;5.70;2.30;;;;;;;11.87;56.62;98312.00;19977470;29;20509;-82
2023/03/31 14:43:49;;;;;;;3.58;1.10;;;;;;;10.96;54.11;98308.38;19993640;29;20224;-80
2023/03/31 14:53:58;;;;;;;4.57;1.23;;;;;;;11.84;50.89;98295.84;19963584;29;20220;-81
2023/03/31 15:04:11;;;;;;;7.40;1.27;;;;;;;11.33;50.82;98288.38;19966983;29;20200;-81
2023/03/31 15:14:13;;;;;;;4.68;0.68;;;;;;;12.12;49.68;98270.44;20001856;29;20275;-81
2023/03/31 15:24:16;;;;;;;4.55;0.93;;;;;;;11.53;52.02;98275.56;19989302;29;20362;-82
2023/03/31 15:34:29;;;;;;;6.50;1.00;;;;;;;10.98;51.71;98289.84;19957768;29;20239;-82
2023/03/31 15:44:38;;;;;;;4.25;1.02;;;;;;;10.31;56.67;98319.53;19965680;29;20501;-82
2023/03/31 15:54:41;;;;;;;5.18;0.98;;;;;;;9.57;62.34;98366.22;20007437;29;20228;-80
2023/03/31 16:04:47;;;;;;;3.20;1.27;;;;;;;9.70;64.13;98346.28;19958546;29;20602;-83
2023/03/31 16:15:06;;;;;;;4.53;0.87;;;;;;;9.97;62.93;98313.16;19928190;29;20661;-81
2023/03/31 16:25:14;;;;;;;4.67;1.37;;;;;;;9.33;61.99;98316.03;19949431;29;20537;-81
2023/03/31 16:35:16;;;;;;;4.57;0.80;;;;;;;9.97;58.69;98313.97;19958360;29;20542;-80
2023/03/31 16:45:20;;;;;;;3.63;0.70;;;;;;;9.60;61.17;98316.00;19968108;29;20306;-81
2023/03/31 16:55:23;;;;;;;2.63;0.93;;;;;;;9.64;59.70;98308.41;19985401;29;20247;-80
2023/03/31 17:05:26;;;;;;;2.27;0.90;;;;;;;9.66;59.04;98306.00;19961001;29;20249;-80
2023/03/31 17:15:29;;;;;;;3.80;0.87;;;;;;;9.96;57.06;98305.91;19966991;29;20285;-82
2023/03/31 17:25:33;;;;;;;4.05;0.70;;;;;;;10.14;57.96;98287.97;19980192;29;20231;-81
2023/03/31 17:35:36;;;;;;;4.83;1.13;;;;;;;9.69;59.78;98289.16;19990264;29;20283;-81
2023/03/31 17:45:38;;;;;;;4.30;0.80;;;;;;;9.76;58.89;98294.84;19950948;29;20200;-81
2023/03/31 17:55:40;;;;;;;1.97;1.13;;;;;;;8.84;62.10;98311.38;19944704;29;20235;-80
2023/03/31 18:05:42;;;;;;;2.90;0.90;;;;;;;9.59;59.21;98318.00;19960850;29;20196;-79
2023/03/31 18:15:47;;;;;;;3.43;0.80;;;;;;;10.07;58.26;98304.84;19941225;29;20247;-82
2023/03/31 18:25:50;;;;;;;4.37;0.90;;;;;;;8.92;62.77;98334.78;19932797;29;20284;-80
2023/03/31 18:35:53;;;;;;;2.30;0.68;;;;;;;9.39;60.40;98325.78;19946615;29;20281;-81
2023/03/31 18:45:57;;;;;;;4.22;0.90;;;;;;;9.07;61.35;98325.34;19951647;29;20206;-81
2023/03/31 18:56:00;;;;;;;2.73;0.77;;;;;;;8.50;64.31;98334.94;19952035;29;20251;-81
2023/03/31 19:06:04;;;;;;;2.97;1.17;;;;;;;8.61;62.21;98335.91;19946833;29;20238;-81
2023/03/31 19:16:07;;;;;;;2.30;0.60;;;;;;;9.47;59.34;98323.84;19942006;29;20323;-83
2023/03/31 19:26:13;;;;;;;2.93;0.60;;;;;;;9.66;59.38;98328.56;19948728;29;20288;-81
2023/03/31 19:36:15;;;;;;;2.50;0.63;;;;;;;9.14;61.58;98335.91;19939163;29;20224;-81
2023/03/31 19:46:18;;;;;;;2.27;0.67;;;;;;;8.82;61.99;98329.81;19936908;29;20237;-81
2023/03/31 19:56:23;;;;;;;1.77;0.40;;;;;;;8.85;60.91;98318.63;19940838;29;20719;-82
2023/03/31 20:06:27;;;;;;;2.93;0.40;;;;;;;8.76;61.46;98300.41;19934409;29;20209;-83
2023/03/31 20:16:30;;;;;;;2.30;0.97;;;;;;;8.30;61.28;98296.84;19937985;29;20280;-78
2023/03/31 20:26:33;;;;;;;2.77;0.50;;;;;;;8.84;58.70;98294.50;19933955;29;20228;-84
2023/03/31 20:36:35;;;;;;;2.83;0.90;;;;;;;8.81;60.07;98300.88;19924508;29;20886;-86
2023/03/31 20:46:37;;;;;;;1.67;0.50;;;;;;;8.57;62.03;98290.03;19948381;29;20207;-85
2023/03/31 20:56:40;;;;;;;1.10;0.60;;;;;;;8.62;61.93;98297.34;19967293;29;20227;-84
2023/03/31 21:06:45;;;;;;;3.63;0.80;;;;;;;8.05;65.06;98302.84;19929546;29;20662;-83
2023/03/31 21:16:47;;;;;;;5.03;0.80;;;;;;;8.21;64.52;98313.16;19937571;29;20232;-84
2023/03/31 21:26:50;;;;;;;2.73;1.00;;;;;;;8.34;62.84;98309.78;19966069;29;20493;-82
2023/03/31 21:36:52;;;;;;;3.23;0.87;;;;;;;8.49;62.60;98310.81;19942665;29;20288;-82
2023/03/31 21:46:55;;;;;;;2.97;1.07;;;;;;;8.52;62.48;98312.06;19970515;29;20208;-85
2023/03/31 21:56:57;;;;;;;1.97;0.80;;;;;;;8.73;61.72;98309.59;19975063;29;20261;-85
2023/03/31 22:07:00;;;;;;;3.70;1.30;;;;;;;8.52;63.28;98315.69;19956898;29;20208;-85
2023/03/31 22:17:02;;;;;;;4.47;1.20;;;;;;;8.20;64.65;98314.34;19965243;29;20227;-86
2023/03/31 22:27:05;;;;;;;5.63;1.37;;;;;;;7.77;63.98;98307.94;19933262;29;20247;-87
2023/03/31 22:37:07;;;;;;;2.10;0.70;;;;;;;8.31;62.23;98312.50;19952259;29;20285;-86
2023/03/31 22:47:10;;;;;;;2.27;0.80;;;;;;;8.22;62.05;98304.34;19964585;29;20192;-87
2023/03/31 22:57:13;;;;;;;2.37;0.90;;;;;;;8.26;62.48;98304.41;19964651;29;20232;-83
2023/03/31 23:07:16;;;;;;;3.77;0.80;;;;;;;8.48;61.82;98310.00;19979493;29;20240;-87
2023/03/31 23:17:20;;;;;;;5.03;0.60;;;;;;;8.40;61.12;98297.00;19975043;29;20630;-88
2023/03/31 23:27:22;;;;;;;2.50;0.30;;;;;;;7.86;62.69;98305.72;19950928;29;20227;-86
2023/03/31 23:37:26;;;;;;;1.37;0.40;;;;;;;7.94;62.89;98296.22;19975641;29;20249;-87
2023/03/31 23:47:31;;;;;;;2.57;0.20;;;;;;;7.80;64.63;98290.34;19948390;29;20711;-83
2023/03/31 23:57:33;;;;;;;1.50;0.30;;;;;;;8.32;63.34;98288.84;19960769;29;20276;-87
